createdAt,value
2022-09-23T00:00:32.116Z,4.90
2022-09-23T00:02:06.528Z,4.90
2022-09-23T00:03:41.856Z,4.90
2022-09-23T00:05:15.195Z,4.90
2022-09-23T00:06:47.281Z,4.90
2022-09-23T00:15:47.699Z,4.60
2022-09-23T00:17:20.727Z,4.60
2022-09-23T00:18:52.763Z,4.60
2022-09-23T00:20:26.252Z,4.60
2022-09-23T00:21:59.233Z,4.70
2022-09-23T00:23:32.959Z,4.70
2022-09-23T00:25:05.899Z,4.70
2022-09-23T00:26:38.918Z,4.70
2022-09-23T00:28:11.951Z,4.70
2022-09-23T00:29:46.345Z,4.60
2022-09-23T00:31:21.191Z,4.60
2022-09-23T00:32:53.339Z,4.60
2022-09-23T00:34:26.408Z,4.70
2022-09-23T00:35:59.564Z,4.60
2022-09-23T00:37:32.930Z,4.60
2022-09-23T00:39:06.072Z,4.70
2022-09-23T00:40:44.426Z,4.70
2022-09-23T00:42:20.547Z,4.70
2022-09-23T00:43:54.997Z,4.70
2022-09-23T00:45:30.940Z,4.70
2022-09-23T00:47:03.337Z,4.70
2022-09-23T00:48:37.943Z,4.70
2022-09-23T00:50:16.023Z,4.80
2022-09-23T00:52:06.769Z,4.80
2022-09-23T00:53:40.856Z,4.80
2022-09-23T00:55:20.334Z,4.80
2022-09-23T00:56:53.493Z,4.80
2022-09-23T00:58:28.105Z,4.80
2022-09-23T01:00:01.250Z,4.80
2022-09-23T01:01:37.376Z,4.80
2022-09-23T01:03:11.953Z,4.80
2022-09-23T01:04:45.290Z,4.70
2022-09-23T01:06:18.610Z,4.70
2022-09-23T01:07:51.036Z,4.70
2022-09-23T01:09:25.563Z,4.70
2022-09-23T01:11:07.584Z,4.70
2022-09-23T01:12:58.403Z,4.60
2022-09-23T01:14:41.209Z,4.60
2022-09-23T01:16:21.608Z,4.50
2022-09-23T01:18:07.638Z,4.50
2022-09-23T01:20:07.509Z,4.50
2022-09-23T01:21:49.932Z,4.50
2022-09-23T01:24:10.019Z,4.50
2022-09-23T01:26:09.731Z,4.50
2022-09-23T01:27:57.218Z,4.50
2022-09-23T01:29:55.606Z,4.50
2022-09-23T01:31:37.924Z,4.40
2022-09-23T01:33:19.502Z,4.40
2022-09-23T01:34:58.292Z,4.40
2022-09-23T01:36:39.335Z,4.40
2022-09-23T01:38:21.742Z,4.40
2022-09-23T01:40:04.435Z,4.30
2022-09-23T01:41:51.495Z,4.30
2022-09-23T01:43:33.931Z,4.20
2022-09-23T01:45:12.982Z,4.20
2022-09-23T01:46:53.126Z,4.30
2022-09-23T01:48:33.304Z,4.30
2022-09-23T01:50:23.673Z,4.40
2022-09-23T01:52:02.576Z,4.40
2022-09-23T01:53:41.071Z,4.40
2022-09-23T01:55:19.602Z,4.40
2022-09-23T01:56:56.208Z,4.30
2022-09-23T01:58:34.114Z,4.30
2022-09-23T02:00:11.427Z,4.30
2022-09-23T02:01:53.260Z,4.30
2022-09-23T02:03:29.907Z,4.30
2022-09-23T02:05:08.018Z,4.40
2022-09-23T02:06:46.477Z,4.40
2022-09-23T02:08:22.160Z,4.40
2022-09-23T02:10:00.356Z,4.50
2022-09-23T02:11:37.028Z,4.50
2022-09-23T02:13:15.641Z,4.40
2022-09-23T02:14:54.370Z,4.40
2022-09-23T02:16:31.556Z,4.40
2022-09-23T02:18:10.953Z,4.30
2022-09-23T02:19:47.869Z,4.30
2022-09-23T02:21:25.933Z,4.30
2022-09-23T02:23:07.563Z,4.30
2022-09-23T02:24:41.246Z,4.20
2022-09-23T02:26:19.966Z,4.20
2022-09-23T02:28:01.784Z,4.20
2022-09-23T02:29:43.496Z,4.10
2022-09-23T02:31:24.581Z,4.20
2022-09-23T02:33:04.245Z,4.20
2022-09-23T02:34:46.527Z,4.10
2022-09-23T02:36:26.049Z,4.20
2022-09-23T02:38:09.688Z,4.10
2022-09-23T02:39:53.211Z,4.20
2022-09-23T02:41:32.479Z,4.20
2022-09-23T02:43:10.358Z,4.20
2022-09-23T02:44:42.726Z,4.20
2022-09-23T02:46:16.588Z,4.20
2022-09-23T02:47:54.371Z,4.20
2022-09-23T02:49:29.348Z,4.10
2022-09-23T02:51:04.296Z,4.10
2022-09-23T02:52:38.713Z,4.10
2022-09-23T02:54:15.550Z,4.10
2022-09-23T02:55:48.656Z,4.00
2022-09-23T02:57:21.924Z,4.00
2022-09-23T02:58:56.002Z,4.00
2022-09-23T03:00:40.461Z,4.00
2022-09-23T03:02:32.656Z,4.00
2022-09-23T03:04:14.747Z,4.00
2022-09-23T03:05:54.083Z,4.10
2022-09-23T03:07:34.311Z,4.10
2022-09-23T03:09:10.604Z,4.10
2022-09-23T03:10:55.129Z,4.10
2022-09-23T03:12:36.592Z,4.10
2022-09-23T03:14:18.033Z,4.10
2022-09-23T03:15:57.321Z,4.10
2022-09-23T03:17:37.565Z,4.10
2022-09-23T03:19:22.344Z,4.10
2022-09-23T03:21:02.236Z,4.00
2022-09-23T03:22:40.751Z,4.00
2022-09-23T03:24:15.775Z,4.00
2022-09-23T03:25:54.010Z,4.10
2022-09-23T03:27:31.205Z,4.10
2022-09-23T03:29:06.494Z,4.10
2022-09-23T03:30:42.128Z,4.10
2022-09-23T03:32:17.352Z,4.00
2022-09-23T03:33:55.716Z,4.00
2022-09-23T03:35:32.474Z,4.00
2022-09-23T03:37:11.914Z,4.00
2022-09-23T03:38:52.789Z,4.00
2022-09-23T03:40:30.701Z,4.10
2022-09-23T03:42:07.847Z,4.10
2022-09-23T03:43:41.393Z,4.10
2022-09-23T03:45:18.724Z,4.10
2022-09-23T03:46:51.769Z,4.10
2022-09-23T03:48:25.016Z,4.10
2022-09-23T03:49:58.085Z,4.10
2022-09-23T03:51:30.142Z,4.10
2022-09-23T03:53:03.180Z,4.10
2022-09-23T03:54:37.650Z,4.10
2022-09-23T03:56:11.681Z,4.10
2022-09-23T03:57:45.579Z,4.10
2022-09-23T03:59:18.791Z,4.20
2022-09-23T04:00:50.917Z,4.10
2022-09-23T04:02:24.108Z,4.10
2022-09-23T04:03:57.192Z,4.10
2022-09-23T04:05:30.369Z,4.10
2022-09-23T04:07:04.122Z,4.10
2022-09-23T04:08:36.169Z,4.00
2022-09-23T04:10:11.619Z,4.00
2022-09-23T04:11:43.664Z,4.00
2022-09-23T04:13:17.149Z,4.00
2022-09-23T04:14:50.254Z,4.00
2022-09-23T04:16:22.990Z,4.00
2022-09-23T04:17:56.044Z,4.00
2022-09-23T04:19:29.072Z,4.00
2022-09-23T04:21:02.527Z,4.00
2022-09-23T04:22:35.858Z,4.00
2022-09-23T04:24:09.870Z,4.00
2022-09-23T04:25:47.528Z,4.00
2022-09-23T04:27:20.569Z,4.10
2022-09-23T04:28:53.842Z,4.10
2022-09-23T04:30:26.855Z,4.10
2022-09-23T04:31:59.976Z,4.10
2022-09-23T04:33:33.304Z,4.20
2022-09-23T04:35:07.928Z,4.20
2022-09-23T04:36:40.987Z,4.20
2022-09-23T04:38:14.227Z,4.20
2022-09-23T04:39:47.237Z,4.20
2022-09-23T04:41:21.665Z,4.20
2022-09-23T04:42:54.780Z,4.40
2022-09-23T04:44:28.057Z,4.40
2022-09-23T04:46:01.944Z,4.40
2022-09-23T04:47:34.967Z,4.40
2022-09-23T04:49:08.649Z,4.40
2022-09-23T04:50:42.178Z,4.40
2022-09-23T04:52:15.187Z,4.40
2022-09-23T04:53:50.596Z,4.40
2022-09-23T04:55:23.721Z,4.50
2022-09-23T04:56:58.107Z,4.40
2022-09-23T04:58:30.679Z,4.40
2022-09-23T05:00:04.610Z,4.40
2022-09-23T05:01:38.436Z,4.40
2022-09-23T05:03:12.421Z,4.40
2022-09-23T05:04:45.464Z,4.40
2022-09-23T05:06:18.659Z,4.50
2022-09-23T05:07:52.137Z,4.50
2022-09-23T05:09:25.178Z,4.60
2022-09-23T05:10:59.041Z,4.60
2022-09-23T05:12:33.543Z,4.60
2022-09-23T05:14:06.588Z,4.60
2022-09-23T05:15:39.622Z,4.60
2022-09-23T05:17:12.839Z,4.60
2022-09-23T05:18:46.678Z,4.70
2022-09-23T05:20:20.649Z,4.70
2022-09-23T05:21:54.092Z,4.70
2022-09-23T05:23:27.672Z,4.70
2022-09-23T05:25:02.235Z,4.90
2022-09-23T05:26:35.284Z,5.20
2022-09-23T05:28:09.713Z,5.80
2022-09-23T05:29:42.769Z,6.60
2022-09-23T05:31:20.376Z,7.20
2022-09-23T05:32:54.129Z,7.80
2022-09-23T05:34:27.171Z,8.40
2022-09-23T05:36:00.260Z,9.10
2022-09-23T05:37:33.718Z,9.80
2022-09-23T05:39:07.819Z,10.60
2022-09-23T05:40:41.153Z,10.90
2022-09-23T05:42:14.307Z,10.60
2022-09-23T05:43:48.716Z,10.00
2022-09-23T05:45:21.788Z,9.30
2022-09-23T05:46:54.968Z,8.70
2022-09-23T05:48:28.104Z,8.50
2022-09-23T05:50:01.123Z,9.10
2022-09-23T05:51:35.746Z,9.40
2022-09-23T05:53:08.958Z,10.20
2022-09-23T05:54:41.997Z,10.70
2022-09-23T05:56:16.249Z,11.30
2022-09-23T05:57:49.281Z,12.00
2022-09-23T05:59:23.912Z,12.40
2022-09-23T06:00:57.737Z,12.60
2022-09-23T06:02:30.869Z,12.80
2022-09-23T06:04:06.018Z,13.10
2022-09-23T06:05:39.189Z,13.50
2022-09-23T06:07:12.435Z,13.80
2022-09-23T06:08:45.921Z,14.20
2022-09-23T06:10:18.965Z,14.10
2022-09-23T06:11:51.983Z,14.50
2022-09-23T06:13:25.956Z,14.90
2022-09-23T06:15:00.977Z,15.10
2022-09-23T06:16:36.037Z,15.50
2022-09-23T06:18:09.158Z,15.70
2022-09-23T06:19:42.189Z,15.50
2022-09-23T06:21:16.912Z,16.00
2022-09-23T06:22:53.385Z,15.70
2022-09-23T06:24:31.380Z,16.10
2022-09-23T06:26:06.097Z,16.10
2022-09-23T06:27:39.154Z,16.40
2022-09-23T06:29:13.502Z,16.50
2022-09-23T06:30:49.855Z,16.80
2022-09-23T06:32:23.084Z,16.60
2022-09-23T06:34:06.345Z,17.10
2022-09-23T06:35:47.037Z,16.80
2022-09-23T06:37:25.943Z,16.80
2022-09-23T06:38:59.072Z,16.70
2022-09-23T06:40:32.888Z,16.40
2022-09-23T06:42:07.687Z,16.60
2022-09-23T06:43:40.972Z,16.60
2022-09-23T06:45:16.273Z,16.50
2022-09-23T06:46:52.047Z,16.40
2022-09-23T06:48:26.232Z,16.50
2022-09-23T06:49:59.267Z,16.50
2022-09-23T06:51:32.362Z,17.10
2022-09-23T06:53:05.606Z,17.50
2022-09-23T06:54:38.620Z,18.00
2022-09-23T06:56:12.183Z,18.30
2022-09-23T06:57:45.367Z,18.20
2022-09-23T06:59:18.460Z,18.20
2022-09-23T07:00:51.598Z,18.00
2022-09-23T07:02:26.350Z,17.90
2022-09-23T07:04:00.613Z,17.90
2022-09-23T07:05:33.749Z,17.60
2022-09-23T07:07:06.767Z,17.20
2022-09-23T07:08:40.427Z,17.50
2022-09-23T07:10:13.615Z,17.20
2022-09-23T07:11:48.469Z,17.10
2022-09-23T07:13:21.865Z,17.60
2022-09-23T07:14:54.885Z,17.90
2022-09-23T07:16:27.969Z,18.00
2022-09-23T07:18:02.402Z,18.10
2022-09-23T07:19:36.469Z,18.00
2022-09-23T07:21:15.115Z,18.00
2022-09-23T07:22:50.988Z,17.90
2022-09-23T07:24:24.024Z,17.60
2022-09-23T07:26:00.180Z,17.50
2022-09-23T07:27:34.032Z,17.10
2022-09-23T07:29:07.139Z,16.60
2022-09-23T07:30:49.896Z,16.00
2022-09-23T07:32:28.887Z,15.70
2022-09-23T07:34:05.833Z,15.20
2022-09-23T07:35:40.950Z,14.80
2022-09-23T07:37:14.369Z,14.70
2022-09-23T07:38:48.375Z,14.70
2022-09-23T07:40:21.558Z,14.70
2022-09-23T07:41:54.729Z,14.40
2022-09-23T07:43:29.984Z,14.60
2022-09-23T07:45:03.008Z,15.00
2022-09-23T07:46:37.332Z,15.00
2022-09-23T07:48:11.722Z,15.00
2022-09-23T07:49:46.116Z,15.10
2022-09-23T07:51:22.134Z,14.80
2022-09-23T07:52:55.449Z,15.20
2022-09-23T07:54:29.745Z,15.20
2022-09-23T07:56:04.542Z,15.30
2022-09-23T07:57:37.550Z,15.50
2022-09-23T07:59:14.390Z,15.50
2022-09-23T08:00:47.578Z,15.90
2022-09-23T08:02:20.678Z,16.10
2022-09-23T08:03:53.028Z,16.50
2022-09-23T08:05:28.376Z,16.70
2022-09-23T08:07:03.162Z,17.00
2022-09-23T08:08:39.281Z,17.20
2022-09-23T08:10:12.343Z,17.50
2022-09-23T08:11:45.371Z,17.50
2022-09-23T08:13:18.602Z,17.60
2022-09-23T08:14:51.641Z,17.60
2022-09-23T08:16:24.795Z,17.80
2022-09-23T08:17:59.713Z,18.00
2022-09-23T08:19:33.047Z,18.30
2022-09-23T08:21:06.552Z,18.30
2022-09-23T08:22:39.577Z,18.30
2022-09-23T08:24:16.110Z,18.10
2022-09-23T08:25:49.525Z,18.70
2022-09-23T08:27:22.576Z,18.50
2022-09-23T08:28:56.469Z,18.20
2022-09-23T08:30:29.505Z,18.30
2022-09-23T08:32:03.058Z,18.50
2022-09-23T08:33:36.067Z,19.00
2022-09-23T08:35:10.415Z,19.10
2022-09-23T08:36:45.387Z,19.20
2022-09-23T08:38:18.884Z,19.70
2022-09-23T08:39:51.928Z,19.90
2022-09-23T08:41:33.604Z,19.70
2022-09-23T08:43:08.266Z,19.70
2022-09-23T08:44:47.980Z,20.00
2022-09-23T08:46:24.116Z,19.90
2022-09-23T08:48:01.896Z,20.10
2022-09-23T08:49:39.529Z,20.30
2022-09-23T08:51:16.376Z,20.30
2022-09-23T08:52:54.893Z,20.00
2022-09-23T08:54:32.087Z,19.80
2022-09-23T08:56:08.286Z,19.40
2022-09-23T08:58:07.951Z,19.50
2022-09-23T08:59:45.422Z,19.70
2022-09-23T09:01:24.476Z,19.30
2022-09-23T09:02:57.772Z,18.00
2022-09-23T09:04:41.247Z,17.50
2022-09-23T09:06:19.470Z,17.80
2022-09-23T09:07:58.558Z,17.70
2022-09-23T09:09:35.551Z,17.40
2022-09-23T09:11:12.102Z,16.70
2022-09-23T09:12:47.529Z,16.50
2022-09-23T09:14:26.252Z,16.80
2022-09-23T09:16:13.833Z,17.50
2022-09-23T09:17:55.217Z,18.50
2022-09-23T09:19:53.466Z,19.00
2022-09-23T09:21:37.463Z,18.90
2022-09-23T09:23:22.555Z,18.80
2022-09-23T09:25:03.635Z,18.90
2022-09-23T09:26:37.072Z,19.50
2022-09-23T09:28:19.569Z,20.20
2022-09-23T09:29:55.442Z,20.90
2022-09-23T09:31:34.120Z,21.40
2022-09-23T09:33:14.346Z,21.50
2022-09-23T09:34:54.672Z,21.80
2022-09-23T09:36:37.218Z,21.90
2022-09-23T09:38:10.279Z,22.20
2022-09-23T09:39:44.673Z,22.70
2022-09-23T09:41:21.377Z,22.90
2022-09-23T09:42:54.828Z,22.90
2022-09-23T09:44:37.208Z,22.60
2022-09-23T09:46:27.889Z,22.90
2022-09-23T09:48:10.880Z,23.30
2022-09-23T09:49:50.013Z,23.50
2022-09-23T09:51:24.853Z,23.50
2022-09-23T09:53:26.273Z,23.40
2022-09-23T09:55:24.430Z,23.20
2022-09-23T09:56:58.373Z,22.50
2022-09-23T09:58:41.648Z,22.10
2022-09-23T10:00:35.624Z,22.10
2022-09-23T10:02:25.502Z,22.60
2022-09-23T10:04:01.859Z,23.20
2022-09-23T10:05:47.747Z,23.20
2022-09-23T10:07:28.108Z,23.50
2022-09-23T10:09:13.857Z,23.90
2022-09-23T10:10:54.853Z,23.80
2022-09-23T10:12:27.993Z,23.50
2022-09-23T10:14:13.408Z,23.40
2022-09-23T10:15:45.748Z,23.50
2022-09-23T10:17:22.163Z,23.30
2022-09-23T10:18:57.013Z,23.80
2022-09-23T10:20:38.042Z,23.90
2022-09-23T10:22:20.534Z,23.70
2022-09-23T10:23:57.918Z,23.80
2022-09-23T10:25:31.316Z,24.00
2022-09-23T10:27:09.267Z,24.10
2022-09-23T10:28:48.629Z,23.90
2022-09-23T10:30:23.501Z,23.20
2022-09-23T10:32:20.650Z,22.40
2022-09-23T10:33:57.306Z,21.90
2022-09-23T10:35:33.408Z,21.50
2022-09-23T10:37:14.789Z,20.70
2022-09-23T10:38:52.282Z,20.40
2022-09-23T10:40:48.570Z,19.90
2022-09-23T10:44:50.313Z,19.60
2022-09-23T10:46:46.135Z,19.20
2022-09-23T10:48:27.568Z,19.10
2022-09-23T10:50:11.870Z,18.70
2022-09-23T10:51:53.594Z,18.70
2022-09-23T10:53:42.101Z,18.50
2022-09-23T10:55:32.514Z,18.40
2022-09-23T10:57:30.231Z,18.30
2022-09-23T10:59:27.960Z,18.30
2022-09-23T11:01:17.800Z,19.30
2022-09-23T11:03:09.256Z,20.70
2022-09-23T11:05:07.547Z,21.90
2022-09-23T11:06:55.634Z,22.60
2022-09-23T11:08:53.739Z,23.40
2022-09-23T11:10:55.836Z,24.00
2022-09-23T11:12:41.344Z,24.10
2022-09-23T11:14:31.126Z,24.10
2022-09-23T11:16:12.175Z,24.40
2022-09-23T11:18:13.601Z,24.70
2022-09-23T11:20:05.206Z,24.70
2022-09-23T11:22:02.321Z,24.20
2022-09-23T11:24:05.566Z,23.10
2022-09-23T11:25:48.237Z,22.70
2022-09-23T11:27:37.308Z,23.20
2022-09-23T11:29:32.973Z,23.60
2022-09-23T11:31:22.510Z,24.30
2022-09-23T11:33:18.062Z,24.90
2022-09-23T11:35:04.018Z,24.90
2022-09-23T11:36:41.932Z,25.40
2022-09-23T11:38:25.114Z,25.70
2022-09-23T11:40:04.275Z,25.10
2022-09-23T11:41:39.993Z,23.80
2022-09-23T11:43:19.892Z,23.20
2022-09-23T11:44:58.693Z,22.60
2022-09-23T11:46:39.146Z,22.30
2022-09-23T11:48:17.396Z,21.90
2022-09-23T11:49:56.406Z,21.60
2022-09-23T11:51:34.626Z,21.10
2022-09-23T11:53:14.006Z,20.80
2022-09-23T11:54:52.928Z,20.50
2022-09-23T11:56:35.275Z,20.20
2022-09-23T11:58:23.855Z,20.00
2022-09-23T12:00:02.974Z,19.80
2022-09-23T12:01:45.600Z,19.70
2022-09-23T12:03:34.233Z,19.40
2022-09-23T12:05:16.893Z,19.30
2022-09-23T12:06:55.862Z,19.40
2022-09-23T12:08:32.358Z,19.90
2022-09-23T12:10:07.851Z,20.10
2022-09-23T12:11:47.592Z,20.10
2022-09-23T12:13:26.038Z,20.30
2022-09-23T12:15:03.666Z,20.40
2022-09-23T12:16:56.313Z,20.80
2022-09-23T12:18:47.327Z,21.20
2022-09-23T12:20:41.429Z,21.90
2022-09-23T12:22:28.979Z,22.70
2022-09-23T12:24:26.256Z,23.00
2022-09-23T12:26:02.023Z,22.90
2022-09-23T12:27:40.092Z,21.90
2022-09-23T12:29:15.528Z,21.90
2022-09-23T12:30:50.257Z,21.50
2022-09-23T12:32:25.193Z,21.20
2022-09-23T12:34:01.339Z,20.50
2022-09-23T12:35:41.214Z,20.00
2022-09-23T12:37:14.381Z,19.40
2022-09-23T12:38:51.298Z,19.30
2022-09-23T12:40:31.627Z,19.40
2022-09-23T12:42:06.300Z,19.40
2022-09-23T12:43:53.826Z,19.30
2022-09-23T12:45:39.255Z,18.80
2022-09-23T12:47:41.057Z,18.50
2022-09-23T12:49:37.456Z,18.40
2022-09-23T12:51:17.949Z,18.10
2022-09-23T12:52:51.344Z,17.80
2022-09-23T12:54:25.897Z,17.90
2022-09-23T12:55:59.332Z,18.00
2022-09-23T12:57:42.936Z,18.00
2022-09-23T12:59:26.197Z,18.10
2022-09-23T13:01:08.746Z,18.30
2022-09-23T13:03:12.559Z,18.50
2022-09-23T13:05:11.321Z,18.60
2022-09-23T13:06:51.373Z,18.60
2022-09-23T13:08:26.644Z,18.70
2022-09-23T13:10:08.898Z,18.60
2022-09-23T13:11:45.319Z,18.50
2022-09-23T13:13:25.128Z,18.60
2022-09-23T13:15:03.600Z,18.70
2022-09-23T13:16:41.881Z,18.90
2022-09-23T13:18:59.595Z,18.80
2022-09-23T13:20:38.545Z,18.50
2022-09-23T13:22:12.351Z,18.90
2022-09-23T13:24:18.133Z,19.40
2022-09-23T13:25:53.206Z,19.90
2022-09-23T13:27:29.860Z,19.90
2022-09-23T13:29:04.744Z,19.60
2022-09-23T13:30:48.151Z,19.70
2022-09-23T13:32:23.918Z,19.70
2022-09-23T13:34:04.018Z,19.40
2022-09-23T13:35:39.254Z,19.20
2022-09-23T13:37:22.665Z,19.20
2022-09-23T13:39:15.133Z,18.90
2022-09-23T13:40:49.290Z,19.20
2022-09-23T13:42:28.136Z,19.20
2022-09-23T13:44:01.467Z,19.10
2022-09-23T13:45:43.209Z,18.60
2022-09-23T13:47:17.107Z,19.00
2022-09-23T13:48:54.596Z,19.80
2022-09-23T13:50:34.665Z,20.20
2022-09-23T13:52:25.223Z,20.80
2022-09-23T13:54:00.235Z,20.80
2022-09-23T13:55:37.332Z,21.00
2022-09-23T13:57:26.743Z,21.00
2022-09-23T13:59:23.554Z,20.80
2022-09-23T14:00:56.775Z,20.10
2022-09-23T14:02:29.970Z,19.80
2022-09-23T14:04:03.767Z,19.30
2022-09-23T14:05:39.890Z,19.00
2022-09-23T14:07:15.862Z,18.50
2022-09-23T14:08:51.156Z,18.40
2022-09-23T14:10:27.170Z,18.10
2022-09-23T14:12:01.876Z,17.80
2022-09-23T14:13:42.377Z,17.60
2022-09-23T14:15:17.377Z,17.90
2022-09-23T14:16:53.056Z,18.60
2022-09-23T14:18:34.798Z,19.20
2022-09-23T14:20:15.315Z,19.20
2022-09-23T14:21:51.503Z,19.10
2022-09-23T14:23:24.879Z,19.00
2022-09-23T14:24:59.247Z,18.90
2022-09-23T14:26:32.529Z,18.70
2022-09-23T14:28:05.896Z,18.60
2022-09-23T14:29:41.262Z,18.30
2022-09-23T14:31:14.916Z,18.40
2022-09-23T14:32:48.905Z,18.30
2022-09-23T14:34:41.071Z,18.30
2022-09-23T14:36:31.169Z,18.20
2022-09-23T14:38:23.161Z,18.10
2022-09-23T14:39:57.946Z,18.00
2022-09-23T14:41:37.107Z,17.90
2022-09-23T14:43:18.133Z,17.80
2022-09-23T14:44:51.485Z,17.70
2022-09-23T14:46:26.153Z,17.80
2022-09-23T14:48:02.972Z,17.90
2022-09-23T14:49:36.665Z,17.90
2022-09-23T14:51:13.263Z,17.70
2022-09-23T14:52:50.592Z,18.00
2022-09-23T14:54:34.915Z,18.40
2022-09-23T14:56:16.984Z,18.60
2022-09-23T14:57:50.088Z,18.80
2022-09-23T14:59:27.657Z,18.70
2022-09-23T15:01:02.497Z,18.80
2022-09-23T15:02:37.570Z,18.60
2022-09-23T15:04:16.901Z,18.60
2022-09-23T15:05:51.530Z,18.30
2022-09-23T15:07:24.665Z,18.40
2022-09-23T15:08:57.770Z,18.30
2022-09-23T15:10:37.502Z,18.20
2022-09-23T15:12:16.426Z,18.00
2022-09-23T15:13:52.367Z,18.00
2022-09-23T15:15:29.114Z,17.90
2022-09-23T15:17:03.952Z,17.80
2022-09-23T15:18:38.572Z,17.70
2022-09-23T15:20:20.942Z,17.70
2022-09-23T15:21:55.077Z,17.60
2022-09-23T15:23:36.590Z,17.50
2022-09-23T15:25:16.485Z,17.40
2022-09-23T15:26:52.389Z,17.50
2022-09-23T15:28:27.185Z,17.50
2022-09-23T15:30:16.139Z,17.50
2022-09-23T15:31:49.279Z,17.50
2022-09-23T15:33:28.071Z,17.50
2022-09-23T15:35:01.121Z,17.40
2022-09-23T15:36:34.897Z,17.40
2022-09-23T15:38:10.519Z,17.10
2022-09-23T15:39:43.612Z,17.10
2022-09-23T15:41:17.268Z,16.90
2022-09-23T15:42:55.376Z,16.70
2022-09-23T15:44:29.650Z,16.20
2022-09-23T15:46:07.793Z,16.10
2022-09-23T15:47:41.044Z,15.70
2022-09-23T15:49:23.910Z,15.60
2022-09-23T15:50:59.132Z,15.40
2022-09-23T15:52:32.410Z,15.40
2022-09-23T15:54:06.886Z,15.20
2022-09-23T15:55:40.055Z,15.10
2022-09-23T15:57:13.124Z,14.80
2022-09-23T15:58:47.878Z,14.60
2022-09-23T16:00:21.529Z,14.50
2022-09-23T16:01:55.917Z,14.30
2022-09-23T16:03:29.359Z,14.20
2022-09-23T16:05:07.752Z,14.10
2022-09-23T16:06:43.205Z,14.00
2022-09-23T16:08:19.647Z,13.80
2022-09-23T16:09:52.770Z,13.70
2022-09-23T16:11:29.276Z,13.60
2022-09-23T16:13:05.007Z,13.60
2022-09-23T16:14:39.719Z,13.50
2022-09-23T16:16:13.382Z,13.50
2022-09-23T16:17:46.541Z,13.50
2022-09-23T16:19:19.594Z,13.50
2022-09-23T16:20:52.793Z,13.40
2022-09-23T16:22:25.851Z,13.20
2022-09-23T16:23:59.259Z,13.10
2022-09-23T16:25:35.911Z,13.10
2022-09-23T16:27:09.361Z,13.10
2022-09-23T16:28:42.406Z,13.00
2022-09-23T16:30:16.961Z,13.00
2022-09-23T16:31:50.112Z,13.00
2022-09-23T16:33:23.217Z,13.00
2022-09-23T16:34:58.527Z,12.90
2022-09-23T16:36:33.535Z,12.90
2022-09-23T16:38:07.665Z,12.70
2022-09-23T16:39:40.706Z,12.70
2022-09-23T16:41:13.783Z,12.60
2022-09-23T16:42:47.207Z,12.50
2022-09-23T16:44:21.204Z,12.30
2022-09-23T16:45:55.665Z,12.20
2022-09-23T16:47:28.826Z,12.10
2022-09-23T16:49:02.494Z,12.00
2022-09-23T16:50:35.726Z,11.90
2022-09-23T16:52:12.785Z,11.80
2022-09-23T16:53:47.967Z,11.70
2022-09-23T16:55:21.950Z,11.50
2022-09-23T16:56:55.107Z,11.50
2022-09-23T16:58:28.126Z,11.40
2022-09-23T17:00:18.550Z,11.30
2022-09-23T17:02:10.713Z,11.30
2022-09-23T17:03:43.890Z,11.20
2022-09-23T17:05:18.486Z,11.20
2022-09-23T17:06:54.238Z,11.20
2022-09-23T17:08:27.273Z,11.20
2022-09-23T17:10:00.355Z,11.10
2022-09-23T17:11:34.204Z,11.10
2022-09-23T17:13:08.208Z,11.10
2022-09-23T17:14:41.216Z,11.10
2022-09-23T17:16:24.822Z,11.00
2022-09-23T17:17:59.248Z,11.00
2022-09-23T17:19:34.178Z,11.00
2022-09-23T17:21:08.747Z,10.90
2022-09-23T17:22:43.897Z,10.90
2022-09-23T17:24:16.936Z,10.90
2022-09-23T17:25:50.274Z,10.90
2022-09-23T17:27:24.894Z,10.80
2022-09-23T17:28:59.583Z,10.80
2022-09-23T17:30:32.793Z,10.80
2022-09-23T17:32:06.257Z,10.70
2022-09-23T17:33:41.198Z,10.70
2022-09-23T17:35:14.227Z,10.70
2022-09-23T17:36:47.272Z,10.70
2022-09-23T17:38:20.434Z,10.70
2022-09-23T17:39:53.460Z,10.70
2022-09-23T17:41:26.814Z,10.60
2022-09-23T17:43:00.547Z,10.70
2022-09-23T17:44:33.861Z,10.70
2022-09-23T17:46:09.533Z,10.70
2022-09-23T17:47:42.803Z,10.70
2022-09-23T17:49:18.036Z,10.70
2022-09-23T17:50:57.541Z,10.70
2022-09-23T17:52:30.601Z,10.70
2022-09-23T17:54:03.658Z,10.80
2022-09-23T17:55:35.689Z,10.70
2022-09-23T17:57:08.798Z,10.80
2022-09-23T17:58:42.676Z,10.80
2022-09-23T18:00:16.017Z,10.80
2022-09-23T18:01:49.106Z,10.70
2022-09-23T18:03:22.276Z,10.70
2022-09-23T18:04:56.736Z,10.70
2022-09-23T18:06:32.081Z,10.70
2022-09-23T18:08:06.139Z,10.70
2022-09-23T18:09:39.247Z,10.70
2022-09-23T18:11:20.105Z,10.70
2022-09-23T18:12:53.144Z,10.70
2022-09-23T18:14:26.177Z,10.70
2022-09-23T18:16:03.689Z,10.60
2022-09-23T18:17:36.976Z,10.50
2022-09-23T18:19:13.941Z,10.40
2022-09-23T18:20:48.353Z,10.40
2022-09-23T18:22:21.454Z,10.30
2022-09-23T18:23:57.298Z,10.20
2022-09-23T18:25:39.502Z,10.20
2022-09-23T18:27:13.062Z,10.10
2022-09-23T18:28:46.254Z,10.10
2022-09-23T18:30:19.329Z,10.10
2022-09-23T18:31:52.415Z,10.00
2022-09-23T18:33:25.650Z,10.00
2022-09-23T18:34:58.713Z,9.90
2022-09-23T18:36:33.790Z,9.90
2022-09-23T18:38:06.808Z,9.80
2022-09-23T18:39:40.926Z,9.80
2022-09-23T18:41:14.680Z,9.80
2022-09-23T18:42:47.903Z,9.80
2022-09-23T18:44:21.113Z,9.90
2022-09-23T18:45:58.322Z,9.90
2022-09-23T18:47:49.001Z,9.90
2022-09-23T18:49:39.698Z,10.00
2022-09-23T18:51:13.849Z,10.00
2022-09-23T18:52:48.268Z,10.00
2022-09-23T18:54:22.355Z,9.90
2022-09-23T18:55:55.384Z,9.90
2022-09-23T18:57:28.885Z,9.90
2022-09-23T18:59:01.970Z,9.80
2022-09-23T19:00:36.203Z,9.70
2022-09-23T19:02:10.177Z,9.60
2022-09-23T19:03:43.752Z,9.60
2022-09-23T19:05:16.915Z,9.60
2022-09-23T19:06:50.476Z,9.50
2022-09-23T19:08:24.880Z,9.40
2022-09-23T19:09:58.040Z,9.40
2022-09-23T19:11:31.765Z,9.30
2022-09-23T19:13:04.782Z,9.30
2022-09-23T19:14:37.822Z,9.20
2022-09-23T19:16:13.067Z,9.20
2022-09-23T19:17:46.243Z,9.10
2022-09-23T19:19:19.348Z,9.10
2022-09-23T19:20:55.231Z,9.10
2022-09-23T19:22:29.808Z,9.00
2022-09-23T19:24:06.939Z,9.00
2022-09-23T19:25:39.997Z,9.00
2022-09-23T19:27:13.043Z,9.00
2022-09-23T19:28:50.500Z,9.00
2022-09-23T19:30:23.549Z,9.00
2022-09-23T19:31:56.729Z,8.90
2022-09-23T19:33:29.751Z,8.90
2022-09-23T19:35:02.788Z,8.90
2022-09-23T19:36:37.915Z,8.90
2022-09-23T19:38:11.584Z,8.90
2022-09-23T19:39:47.538Z,8.90
2022-09-23T19:41:20.619Z,8.90
2022-09-23T19:42:55.026Z,8.90
2022-09-23T19:44:28.508Z,8.90
2022-09-23T19:46:01.532Z,8.90
2022-09-23T19:47:37.731Z,8.90
2022-09-23T19:49:11.057Z,8.90
2022-09-23T19:50:47.274Z,8.90
2022-09-23T19:52:20.289Z,8.90
2022-09-23T19:53:53.622Z,8.80
2022-09-23T19:55:30.252Z,8.80
2022-09-23T19:57:03.289Z,8.80
2022-09-23T19:58:35.516Z,8.80
2022-09-23T20:00:10.006Z,8.80
2022-09-23T20:01:45.574Z,8.80
2022-09-23T20:03:18.791Z,8.80
2022-09-23T20:04:52.134Z,8.80
2022-09-23T20:06:25.268Z,8.80
2022-09-23T20:07:59.083Z,8.70
2022-09-23T20:09:32.111Z,8.70
2022-09-23T20:11:12.296Z,8.70
2022-09-23T20:12:46.015Z,8.70
2022-09-23T20:14:19.803Z,8.70
2022-09-23T20:15:53.652Z,8.70
2022-09-23T20:17:26.724Z,8.60
2022-09-23T20:19:00.839Z,8.60
2022-09-23T20:20:33.935Z,8.60
2022-09-23T20:22:24.351Z,8.60
2022-09-23T20:23:57.477Z,8.60
2022-09-23T20:25:51.129Z,8.60
2022-09-23T20:27:25.464Z,8.70
2022-09-23T20:29:01.454Z,8.60
2022-09-23T20:30:38.570Z,8.60
2022-09-23T20:32:12.114Z,8.50
2022-09-23T20:33:46.153Z,8.50
2022-09-23T20:35:19.282Z,8.50
2022-09-23T20:36:52.304Z,8.50
2022-09-23T20:38:25.324Z,8.50
2022-09-23T20:39:58.336Z,8.40
2022-09-23T20:41:34.661Z,8.50
2022-09-23T20:43:09.973Z,8.40
2022-09-23T20:44:44.852Z,8.40
2022-09-23T20:46:17.976Z,8.30
2022-09-23T20:47:51.006Z,8.30
2022-09-23T20:49:24.046Z,8.20
2022-09-23T20:51:01.327Z,8.20
2022-09-23T20:52:35.787Z,8.10
2022-09-23T20:54:07.921Z,8.10
2022-09-23T20:55:50.289Z,8.00
2022-09-23T20:57:23.321Z,8.00
2022-09-23T20:59:00.916Z,8.00
2022-09-23T21:00:34.312Z,8.00
2022-09-23T21:02:08.336Z,8.00
2022-09-23T21:03:43.740Z,8.00
2022-09-23T21:05:17.944Z,8.00
2022-09-23T21:06:51.799Z,8.00
2022-09-23T21:08:24.756Z,8.00
2022-09-23T21:10:01.206Z,8.00
2022-09-23T21:11:34.244Z,8.00
2022-09-23T21:13:08.149Z,8.00
2022-09-23T21:14:42.548Z,8.10
2022-09-23T21:16:15.919Z,8.10
2022-09-23T21:17:49.189Z,8.10
2022-09-23T21:19:22.582Z,8.10